Time;durP1;ratioP1;P1;durP2;ratioP2;P2;SDS_P1;SDS_P2;PMS_P1;PMS_P2;Temp;Humidity;BMP_temperature;BMP_pressure;BME280_temperature;BME280_humidity;BME280_pressure;Samples;Min_cycle;Max_cycle;Signal;HPM_P1;HPM_P2
2022/05/16 00:01:55;;;;;;;5.73;4.07;;;14.80;99.90;;;;;;5071382;28;20458;-66
2022/05/16 00:04:22;;;;;;;5.70;4.40;;;14.70;99.90;;;;;;5071583;28;20449;-66
2022/05/16 00:06:49;;;;;;;6.67;3.93;;;14.70;99.90;;;;;;5071858;28;20482;-66
2022/05/16 00:09:16;;;;;;;5.30;3.90;;;14.70;99.90;;;;;;5071124;28;20841;-66
2022/05/16 00:11:43;;;;;;;6.80;4.30;;;14.80;99.90;;;;;;5051771;28;20456;-66
2022/05/16 00:14:11;;;;;;;5.00;4.33;;;14.80;99.90;;;;;;5054701;28;20546;-66
2022/05/16 00:16:40;;;;;;;4.60;4.20;;;14.90;99.90;;;;;;5070870;28;20443;-66
2022/05/16 00:19:07;;;;;;;6.40;3.80;;;14.80;99.90;;;;;;5071463;28;20463;-66
2022/05/16 00:21:33;;;;;;;6.03;4.17;;;14.80;99.90;;;;;;5070774;28;20947;-66
2022/05/16 00:24:00;;;;;;;5.90;4.30;;;14.80;99.90;;;;;;5071299;28;20451;-66
2022/05/16 00:26:27;;;;;;;4.77;4.03;;;14.80;99.90;;;;;;5071149;28;20439;-66
2022/05/16 00:28:54;;;;;;;6.50;4.27;;;14.80;99.90;;;;;;5071192;28;21038;-66
2022/05/16 00:31:21;;;;;;;6.60;4.10;;;14.80;99.90;;;;;;5070789;28;20447;-66
2022/05/16 00:33:49;;;;;;;6.77;4.00;;;14.70;99.90;;;;;;5071364;28;20542;-67
2022/05/16 00:36:16;;;;;;;5.23;3.80;;;14.60;99.90;;;;;;5071358;28;20932;-67
2022/05/16 00:38:42;;;;;;;8.50;3.67;;;14.70;99.90;;;;;;5071082;28;21239;-67
2022/05/16 00:41:10;;;;;;;6.47;3.70;;;14.80;99.90;;;;;;5070776;28;20451;-66
2022/05/16 00:43:46;;;;;;;5.63;4.23;;;14.80;99.90;;;;;;5070893;28;20443;-66
2022/05/16 00:46:14;;;;;;;5.93;3.83;;;14.80;99.90;;;;;;5071222;28;20804;-67
2022/05/16 00:48:41;;;;;;;4.40;3.60;;;15.00;99.90;;;;;;5070925;28;20483;-66
2022/05/16 00:51:12;;;;;;;4.33;3.37;;;15.00;99.90;;;;;;5070847;28;20443;-68
2022/05/16 00:53:39;;;;;;;5.27;3.83;;;14.90;99.90;;;;;;5071049;28;20823;-67
2022/05/16 00:56:07;;;;;;;4.37;3.30;;;15.00;99.90;;;;;;5071095;28;20477;-67
2022/05/16 00:58:37;;;;;;;5.23;3.97;;;14.90;99.90;;;;;;5070677;28;20541;-67
2022/05/16 01:04:47;;;;;;;4.90;3.60;;;14.80;99.90;;;;;;5070575;28;20863;-66
2022/05/16 01:06:42;;;;;;;4.80;3.70;;;14.80;99.90;;;;;;5054708;28;20432;-67
2022/05/16 01:09:09;;;;;;;5.00;3.43;;;14.70;99.90;;;;;;5070486;28;20554;-67
2022/05/16 01:11:39;;;;;;;4.30;3.30;;;14.80;99.90;;;;;;5070260;28;20526;-66
2022/05/16 01:14:06;;;;;;;3.97;3.20;;;14.70;99.90;;;;;;5070483;28;20447;-66
2022/05/16 01:16:33;;;;;;;5.73;4.00;;;14.70;99.90;;;;;;5070734;28;20832;-66
2022/05/16 01:19:00;;;;;;;5.33;3.70;;;14.70;99.90;;;;;;5070150;28;20464;-66
2022/05/16 01:21:36;;;;;;;4.77;3.93;;;14.60;99.90;;;;;;5069619;28;20466;-66
2022/05/16 01:24:09;;;;;;;5.50;4.33;;;14.60;99.90;;;;;;5070387;28;20486;-66
2022/05/16 01:26:37;;;;;;;4.10;3.70;;;14.40;99.90;;;;;;5070443;28;20862;-67
2022/05/16 01:29:05;;;;;;;4.70;3.67;;;14.40;99.90;;;;;;5070423;28;20558;-66
2022/05/16 01:31:33;;;;;;;5.47;3.93;;;14.50;99.90;;;;;;5071458;28;20915;-67
2022/05/16 01:34:00;;;;;;;4.37;3.60;;;14.50;99.90;;;;;;5072772;28;20455;-67
2022/05/16 01:36:27;;;;;;;7.10;4.33;;;14.50;99.90;;;;;;5071234;28;20439;-67
2022/05/16 01:38:54;;;;;;;4.73;3.73;;;14.50;99.90;;;;;;5070318;28;20463;-67
2022/05/16 01:41:25;;;;;;;5.07;3.63;;;14.50;99.90;;;;;;5069811;28;20457;-65
2022/05/16 01:43:55;;;;;;;5.10;4.17;;;14.50;99.90;;;;;;5070032;28;20960;-67
2022/05/16 01:46:24;;;;;;;4.70;4.20;;;14.40;99.90;;;;;;5070089;28;20463;-66
2022/05/16 01:48:52;;;;;;;5.10;4.07;;;14.20;99.90;;;;;;5069836;28;20487;-66
2022/05/16 01:51:19;;;;;;;4.50;3.30;;;14.20;99.90;;;;;;5069598;28;20450;-66
2022/05/16 01:53:46;;;;;;;4.63;3.70;;;14.10;99.90;;;;;;5069791;28;20971;-67
2022/05/16 01:56:14;;;;;;;4.03;3.50;;;14.10;99.90;;;;;;5070006;28;20455;-66
2022/05/16 01:58:42;;;;;;;4.30;3.50;;;14.20;99.90;;;;;;5069734;28;20882;-66
2022/05/16 02:01:10;;;;;;;4.30;3.47;;;14.20;99.90;;;;;;5068801;28;20646;-66
2022/05/16 02:03:39;;;;;;;6.27;4.20;;;14.20;99.90;;;;;;5069223;28;20443;-66
2022/05/16 02:06:06;;;;;;;5.20;3.60;;;14.30;99.90;;;;;;5069721;28;20443;-67
2022/05/16 02:08:33;;;;;;;6.23;4.00;;;14.20;99.90;;;;;;5069563;28;20501;-67
2022/05/16 02:11:01;;;;;;;4.57;3.50;;;14.20;99.90;;;;;;5069249;28;20475;-65
2022/05/16 02:13:29;;;;;;;5.90;4.20;;;14.20;99.90;;;;;;5069395;28;20451;-67
2022/05/16 02:15:58;;;;;;;6.50;4.20;;;14.10;99.90;;;;;;5068968;28;20451;-65
2022/05/16 02:18:25;;;;;;;5.87;4.03;;;14.20;99.90;;;;;;5069598;28;20513;-66
2022/05/16 02:20:52;;;;;;;5.80;4.50;;;14.20;99.90;;;;;;5069487;28;20442;-67
2022/05/16 02:26:03;;;;;;;5.87;4.43;;;14.00;99.90;;;;;;5069519;28;20919;-67
2022/05/16 02:28:30;;;;;;;6.13;4.73;;;13.90;99.90;;;;;;5069206;28;20487;-67
2022/05/16 02:30:58;;;;;;;7.50;5.03;;;13.90;99.90;;;;;;5070026;28;20946;-67
2022/05/16 02:33:25;;;;;;;5.50;4.53;;;13.90;99.90;;;;;;5073936;28;20905;-67
2022/05/16 02:35:52;;;;;;;7.97;5.30;;;13.90;99.90;;;;;;5073501;28;20959;-66
2022/05/16 02:38:20;;;;;;;9.60;5.00;;;14.00;99.90;;;;;;5074076;28;21215;-66
2022/05/16 02:40:47;;;;;;;9.13;5.27;;;14.10;99.90;;;;;;5073408;28;20457;-66
2022/05/16 02:43:15;;;;;;;5.43;4.73;;;14.10;99.90;;;;;;5073698;28;20893;-67
2022/05/16 02:45:41;;;;;;;6.77;4.80;;;14.00;99.90;;;;;;5073637;28;21181;-66
2022/05/16 02:48:10;;;;;;;8.80;6.00;;;14.00;99.90;;;;;;5073768;28;20577;-66
2022/05/16 02:50:37;;;;;;;5.27;4.30;;;14.10;99.90;;;;;;5073337;28;20447;-66
2022/05/16 02:53:04;;;;;;;5.90;4.20;;;14.10;99.90;;;;;;5073469;28;20457;-67
2022/05/16 02:55:35;;;;;;;5.03;4.17;;;13.90;99.90;;;;;;5073406;28;20438;-67
2022/05/16 02:58:02;;;;;;;4.77;4.27;;;13.80;99.90;;;;;;5073121;28;20470;-67
2022/05/16 03:00:29;;;;;;;5.10;3.63;;;13.80;99.90;;;;;;5073184;28;20807;-66
2022/05/16 03:02:56;;;;;;;5.30;3.90;;;13.80;99.90;;;;;;5072839;28;20462;-68
2022/05/16 03:05:24;;;;;;;5.23;3.93;;;13.80;99.90;;;;;;5073127;28;20489;-67
2022/05/16 03:07:51;;;;;;;4.73;3.73;;;13.90;99.90;;;;;;5072712;28;20477;-68
2022/05/16 03:10:19;;;;;;;10.50;3.97;;;13.90;99.90;;;;;;5072539;28;20478;-67
2022/05/16 03:12:47;;;;;;;4.17;3.77;;;13.90;99.90;;;;;;5072972;28;20806;-67
2022/05/16 03:15:15;;;;;;;6.40;4.10;;;14.00;99.90;;;;;;5073118;28;20455;-67
2022/05/16 03:17:42;;;;;;;6.63;4.10;;;14.10;99.90;;;;;;5072633;28;20944;-67
2022/05/16 03:20:12;;;;;;;6.10;4.40;;;14.20;99.90;;;;;;5072563;28;20447;-67
2022/05/16 03:22:41;;;;;;;5.00;4.00;;;14.20;99.90;;;;;;5072778;28;20461;-67
2022/05/16 03:25:09;;;;;;;4.83;4.10;;;14.20;99.90;;;;;;5072548;28;20948;-67
2022/05/16 03:27:35;;;;;;;5.87;4.37;;;14.20;99.90;;;;;;5072624;28;21015;-66
2022/05/16 03:30:02;;;;;;;6.73;4.20;;;14.30;99.90;;;;;;5072084;28;20999;-66
2022/05/16 03:32:29;;;;;;;5.90;4.53;;;14.40;99.90;;;;;;5072587;28;20443;-67
2022/05/16 03:34:56;;;;;;;9.43;4.77;;;14.50;99.90;;;;;;5072418;28;20466;-66
2022/05/16 03:37:23;;;;;;;4.23;3.50;;;14.50;99.90;;;;;;5072423;28;20461;-67
2022/05/16 03:42:36;;;;;;;8.80;4.20;;;14.70;99.90;;;;;;5071335;28;20917;-67
2022/05/16 03:45:04;;;;;;;6.33;4.20;;;14.70;99.90;;;;;;5072228;28;20502;-67
2022/05/16 03:47:31;;;;;;;6.87;4.43;;;14.80;99.90;;;;;;5072165;28;20528;-67
2022/05/16 03:49:58;;;;;;;5.30;4.40;;;14.70;99.90;;;;;;5070108;28;21106;-67
2022/05/16 03:52:24;;;;;;;5.63;4.93;;;14.70;99.90;;;;;;5071867;28;20831;-67
2022/05/16 03:54:53;;;;;;;4.90;4.13;;;14.70;99.90;;;;;;5071676;28;20934;-67
2022/05/16 03:57:21;;;;;;;7.00;4.47;;;14.80;99.90;;;;;;5071064;28;20534;-67
2022/05/16 03:59:48;;;;;;;9.30;5.10;;;14.80;99.90;;;;;;5071345;28;20502;-67
2022/05/16 04:02:15;;;;;;;5.30;4.23;;;14.80;99.90;;;;;;5071987;28;20554;-67
2022/05/16 04:04:43;;;;;;;6.57;4.30;;;14.90;99.90;;;;;;5072143;28;20455;-68
2022/05/16 04:07:10;;;;;;;5.20;4.53;;;14.90;99.90;;;;;;5071708;28;20455;-67
2022/05/16 04:09:37;;;;;;;5.67;4.20;;;14.90;99.90;;;;;;5071674;28;21178;-68
2022/05/16 04:12:06;;;;;;;6.20;4.30;;;14.90;99.90;;;;;;5071380;28;20487;-68
2022/05/16 04:14:33;;;;;;;7.57;4.77;;;14.80;99.90;;;;;;5072006;28;20459;-68
2022/05/16 04:17:00;;;;;;;6.00;4.57;;;14.70;99.90;;;;;;5071757;28;20542;-67
2022/05/16 04:19:27;;;;;;;6.00;4.60;;;14.90;99.90;;;;;;5071575;28;20459;-67
2022/05/16 04:21:53;;;;;;;6.40;4.07;;;14.90;99.90;;;;;;5071243;28;20451;-66
2022/05/16 04:24:20;;;;;;;5.50;4.53;;;15.00;99.90;;;;;;5071585;28;20443;-67
2022/05/16 04:26:47;;;;;;;4.80;4.10;;;15.00;99.90;;;;;;5071279;28;20531;-67
2022/05/16 04:29:15;;;;;;;6.90;4.40;;;15.20;99.90;;;;;;5071480;28;20491;-67
2022/05/16 04:31:42;;;;;;;6.13;4.07;;;15.30;99.90;;;;;;5071145;28;20443;-67
2022/05/16 04:34:10;;;;;;;7.17;4.80;;;15.30;99.90;;;;;;5071536;28;20445;-67
2022/05/16 04:36:37;;;;;;;8.60;4.77;;;15.50;99.90;;;;;;5071108;28;20496;-67
2022/05/16 04:39:04;;;;;;;9.43;4.90;;;15.60;99.90;;;;;;5071164;28;20471;-66
2022/05/16 04:44:27;;;;;;;9.37;6.13;;;15.60;99.90;;;;;;5009035;28;20430;-65
2022/05/16 04:46:54;;;;;;;6.93;5.03;;;15.50;99.90;;;;;;5056319;28;20446;-66
2022/05/16 04:49:21;;;;;;;8.70;4.73;;;15.30;99.90;;;;;;5070969;28;20483;-66
2022/05/16 04:51:48;;;;;;;6.43;5.03;;;15.10;99.90;;;;;;5070614;28;20526;-65
2022/05/16 04:54:15;;;;;;;6.43;5.83;;;15.00;99.90;;;;;;5070622;28;20530;-64
2022/05/16 04:56:42;;;;;;;7.20;5.60;;;14.90;99.90;;;;;;5071082;28;20455;-64
2022/05/16 04:59:10;;;;;;;6.77;4.50;;;14.80;99.90;;;;;;5070647;28;21019;-66
2022/05/16 05:01:38;;;;;;;6.20;5.60;;;14.70;99.90;;;;;;5069226;28;20558;-66
2022/05/16 05:04:05;;;;;;;5.27;4.77;;;14.70;99.90;;;;;;5064236;28;20866;-66
2022/05/16 05:06:32;;;;;;;6.40;4.80;;;14.70;99.90;;;;;;5061412;28;20448;-67
2022/05/16 05:08:59;;;;;;;6.93;4.73;;;14.70;99.90;;;;;;5066846;28;20487;-66
2022/05/16 05:16:56;;;;;;;5.70;4.67;;;15.20;99.90;;;;;;5066643;28;20402;-66
2022/05/16 05:19:23;;;;;;;6.50;5.20;;;15.10;99.90;;;;;;5064009;28;20459;-66
2022/05/16 05:21:50;;;;;;;6.20;5.27;;;15.10;99.90;;;;;;5067111;28;20526;-66
2022/05/16 05:24:17;;;;;;;6.23;5.43;;;15.20;99.90;;;;;;5067351;28;20443;-66
2022/05/16 05:26:44;;;;;;;6.07;5.47;;;15.40;99.90;;;;;;5067505;28;20443;-66
2022/05/16 05:29:12;;;;;;;7.57;5.47;;;15.50;99.90;;;;;;5068122;28;20506;-66
2022/05/16 05:31:41;;;;;;;5.40;4.87;;;15.60;99.90;;;;;;5069357;28;20937;-66
2022/05/16 05:34:11;;;;;;;7.90;4.50;;;15.80;99.90;;;;;;5070412;28;20455;-65
2022/05/16 05:36:38;;;;;;;5.73;5.00;;;16.00;99.90;;;;;;5070157;28;20509;-66
2022/05/16 05:39:06;;;;;;;6.80;4.93;;;16.20;99.90;;;;;;5070053;28;20467;-65
2022/05/16 05:41:33;;;;;;;6.53;5.70;;;16.40;99.90;;;;;;5069786;28;20454;-64
2022/05/16 05:43:59;;;;;;;6.23;4.97;;;16.50;99.90;;;;;;5069980;28;21023;-66
2022/05/16 05:46:27;;;;;;;8.30;5.37;;;16.50;99.90;;;;;;5070094;28;20482;-65
2022/05/16 05:48:54;;;;;;;7.03;4.80;;;16.70;99.90;;;;;;5069839;28;20487;-66
2022/05/16 05:51:22;;;;;;;5.50;4.70;;;16.80;99.90;;;;;;5069215;28;20447;-67
2022/05/16 05:53:49;;;;;;;5.17;4.67;;;16.70;99.90;;;;;;5069725;28;20443;-66
2022/05/16 05:56:16;;;;;;;6.50;5.20;;;16.40;99.90;;;;;;5069374;28;21222;-68
2022/05/16 05:58:43;;;;;;;5.30;4.70;;;16.40;99.90;;;;;;5066643;28;20865;-66
2022/05/16 06:01:10;;;;;;;5.50;5.00;;;16.40;99.90;;;;;;5068867;28;20458;-65
2022/05/16 06:03:37;;;;;;;8.77;5.40;;;16.40;99.90;;;;;;5069779;28;20446;-66
2022/05/16 06:06:04;;;;;;;9.87;5.70;;;16.40;99.90;;;;;;5069212;28;20455;-67
2022/05/16 06:08:32;;;;;;;6.93;4.40;;;16.40;99.90;;;;;;5069491;28;20603;-66
2022/05/16 06:11:00;;;;;;;5.47;4.97;;;16.40;99.90;;;;;;5069178;28;20938;-66
2022/05/16 06:13:28;;;;;;;5.47;4.87;;;16.50;99.90;;;;;;5069758;28;20447;-66
2022/05/16 06:15:55;;;;;;;7.57;5.20;;;16.60;99.90;;;;;;5069517;28;20513;-67
2022/05/16 06:18:22;;;;;;;7.63;5.20;;;16.80;99.90;;;;;;5069509;28;20965;-66
2022/05/16 06:20:49;;;;;;;6.83;5.00;;;17.00;99.90;;;;;;5069356;28;20434;-67
2022/05/16 06:23:16;;;;;;;6.17;5.10;;;17.20;99.90;;;;;;5069512;28;20447;-67
2022/05/16 06:25:44;;;;;;;6.57;5.13;;;17.30;99.90;;;;;;5069323;28;20880;-67
2022/05/16 06:28:14;;;;;;;5.00;4.37;;;17.50;99.90;;;;;;5069317;28;20471;-66
2022/05/16 06:30:45;;;;;;;5.77;4.97;;;17.60;99.90;;;;;;5069179;28;20447;-66
2022/05/16 06:33:14;;;;;;;9.60;5.30;;;17.70;99.90;;;;;;5069505;28;20446;-66
2022/05/16 06:35:41;;;;;;;7.57;5.40;;;17.80;99.90;;;;;;5069433;28;20454;-67
2022/05/16 06:38:10;;;;;;;7.97;6.00;;;17.90;99.90;;;;;;5069396;28;20474;-68
2022/05/16 06:40:39;;;;;;;8.90;5.40;;;18.00;99.90;;;;;;5069339;28;20473;-67
2022/05/16 06:43:09;;;;;;;6.80;5.43;;;18.10;99.90;;;;;;5069481;28;20478;-67
2022/05/16 06:45:35;;;;;;;7.80;5.20;;;18.10;99.90;;;;;;5069545;28;20530;-67
2022/05/16 06:48:03;;;;;;;9.90;6.77;;;18.10;99.90;;;;;;5069316;28;20454;-68
2022/05/16 06:50:30;;;;;;;10.10;5.90;;;18.30;99.90;;;;;;5068979;28;20483;-67
2022/05/16 06:52:57;;;;;;;8.83;7.20;;;18.40;99.90;;;;;;5069585;28;20439;-67
2022/05/16 06:55:24;;;;;;;5.73;5.00;;;18.70;99.90;;;;;;5069413;28;20945;-67
2022/05/16 06:57:51;;;;;;;11.60;5.27;;;19.00;99.90;;;;;;5069387;28;20443;-67
2022/05/16 07:00:20;;;;;;;9.60;4.63;;;19.30;99.90;;;;;;5068851;28;20451;-67
2022/05/16 07:02:47;;;;;;;6.10;4.13;;;19.70;99.90;;;;;;5069146;28;20451;-67
2022/05/16 07:05:14;;;;;;;5.80;3.63;;;20.10;99.90;;;;;;5069101;28;20443;-67
2022/05/16 07:07:41;;;;;;;6.27;4.10;;;20.50;99.90;;;;;;5069488;28;20837;-67
2022/05/16 07:10:09;;;;;;;6.13;3.90;;;20.80;99.90;;;;;;5069040;28;20552;-67
2022/05/16 07:12:36;;;;;;;4.87;3.80;;;21.10;99.90;;;;;;5069273;28;20447;-68
2022/05/16 07:15:04;;;;;;;4.67;3.80;;;21.30;99.90;;;;;;5069102;28;20455;-67
2022/05/16 07:17:32;;;;;;;5.90;3.83;;;21.60;99.90;;;;;;5070597;28;20979;-67
2022/05/16 07:19:59;;;;;;;5.37;3.40;;;22.00;99.90;;;;;;5072681;28;20489;-67
2022/05/16 07:22:26;;;;;;;6.80;3.90;;;22.60;99.90;;;;;;5073013;28;20563;-67
2022/05/16 07:24:55;;;;;;;4.67;4.17;;;22.90;99.90;;;;;;5072970;28;20455;-68
2022/05/16 07:30:09;;;;;;;4.10;3.47;;;23.20;99.90;;;;;;5072349;28;20544;-67
2022/05/16 07:32:41;;;;;;;5.93;3.80;;;23.60;99.90;;;;;;5072589;28;20971;-67
2022/05/16 07:35:11;;;;;;;5.50;3.30;;;23.80;99.90;;;;;;5072767;28;20835;-67
2022/05/16 07:37:38;;;;;;;6.40;3.57;;;23.80;99.90;;;;;;5072691;28;20443;-68
2022/05/16 07:40:07;;;;;;;6.13;3.77;;;23.80;99.90;;;;;;5072046;28;20921;-66
2022/05/16 07:42:34;;;;;;;5.00;3.33;;;23.80;99.90;;;;;;5072337;28;20519;-67
2022/05/16 07:45:01;;;;;;;4.47;3.60;;;23.90;99.90;;;;;;5072459;28;20453;-67
2022/05/16 07:47:30;;;;;;;6.40;4.00;;;23.90;99.90;;;;;;5072549;28;20474;-67
2022/05/16 07:49:58;;;;;;;8.63;4.23;;;24.20;99.90;;;;;;5072047;28;20561;-67
2022/05/16 07:52:25;;;;;;;4.93;3.53;;;24.50;99.90;;;;;;5072484;28;20442;-67
2022/05/16 07:54:53;;;;;;;5.60;3.93;;;25.00;99.90;;;;;;5072407;28;20451;-68
2022/05/16 07:57:20;;;;;;;6.33;4.30;;;25.10;99.90;;;;;;5072376;28;20443;-67
2022/05/16 07:59:47;;;;;;;8.13;4.60;;;25.30;99.90;;;;;;5072453;28;20463;-66
2022/05/16 08:02:14;;;;;;;8.37;4.70;;;25.30;99.90;;;;;;5071742;28;20446;-66
2022/05/16 08:04:41;;;;;;;9.40;4.10;;;25.30;99.90;;;;;;5072356;28;20455;-67
2022/05/16 08:07:09;;;;;;;6.10;3.93;;;25.30;99.90;;;;;;5072249;28;20455;-66
2022/05/16 08:12:25;;;;;;;7.00;4.90;;;24.90;99.90;;;;;;5072306;28;20426;-67
2022/05/16 08:14:52;;;;;;;5.13;4.50;;;24.50;99.90;;;;;;5072178;28;20827;-66
2022/05/16 08:17:19;;;;;;;6.87;5.00;;;24.10;99.90;;;;;;5071841;28;20450;-67
2022/05/16 08:19:46;;;;;;;6.53;4.87;;;23.40;99.90;;;;;;5071531;28;20463;-67
2022/05/16 08:22:14;;;;;;;8.10;5.33;;;23.00;99.90;;;;;;5071566;28;21158;-67
2022/05/16 08:24:41;;;;;;;5.43;4.77;;;22.90;99.90;;;;;;5071519;28;21013;-67
2022/05/16 08:27:09;;;;;;;7.60;5.00;;;22.90;99.90;;;;;;5071866;28;20453;-67
2022/05/16 08:29:36;;;;;;;4.80;4.30;;;23.10;99.90;;;;;;5071090;28;20513;-67
2022/05/16 08:32:03;;;;;;;6.60;5.03;;;23.40;99.90;;;;;;5071364;28;20469;-67
2022/05/16 08:34:31;;;;;;;6.67;4.03;;;23.70;99.90;;;;;;5071370;28;20822;-68
2022/05/16 08:39:54;;;;;;;8.97;4.80;;;24.40;99.90;;;;;;5071302;28;20568;-67
2022/05/16 08:42:29;;;;;;;5.07;4.03;;;24.40;99.90;;;;;;5071352;28;20852;-67
2022/05/16 08:45:00;;;;;;;5.10;4.60;;;24.40;99.90;;;;;;5071437;28;20442;-67
2022/05/16 08:47:45;;;;;;;5.10;4.53;;;24.30;99.90;;;;;;5071571;28;20483;-67
2022/05/16 08:50:15;;;;;;;6.20;4.90;;;23.90;99.90;;;;;;5070771;28;20515;-68
2022/05/16 08:52:47;;;;;;;6.27;4.33;;;23.80;99.90;;;;;;5071461;28;20481;-68
2022/05/16 08:55:26;;;;;;;6.13;4.70;;;23.70;99.90;;;;;;5071071;28;21014;-67
2022/05/16 08:57:57;;;;;;;6.13;4.50;;;23.70;99.90;;;;;;5071070;28;20454;-68
2022/05/16 09:00:31;;;;;;;5.57;4.70;;;24.10;99.90;;;;;;5070783;28;20489;-68
2022/05/16 09:02:59;;;;;;;7.27;4.90;;;24.60;99.90;;;;;;5070646;28;20546;-67
2022/05/16 09:05:33;;;;;;;5.73;4.67;;;25.30;99.90;;;;;;5070717;28;20458;-68
2022/05/16 09:08:01;;;;;;;5.83;5.10;;;25.90;99.90;;;;;;5070530;28;20442;-68
2022/05/16 09:10:40;;;;;;;6.47;4.93;;;26.40;99.90;;;;;;5070469;28;20578;-67
2022/05/16 09:13:23;;;;;;;7.00;5.10;;;27.00;99.90;;;;;;5070655;28;20541;-67
2022/05/16 09:15:59;;;;;;;6.00;5.37;;;27.60;99.90;;;;;;5070621;28;20439;-67
2022/05/16 09:18:33;;;;;;;9.30;5.10;;;27.60;99.90;;;;;;5070379;28;20466;-67
2022/05/16 09:21:11;;;;;;;7.50;4.97;;;27.00;99.20;;;;;;5070567;28;20473;-66
2022/05/16 09:23:53;;;;;;;7.07;5.57;;;27.00;99.10;;;;;;5070709;28;20476;-67
2022/05/16 09:26:30;;;;;;;7.13;5.07;;;26.90;98.60;;;;;;5070603;28;20443;-67
2022/05/16 09:29:00;;;;;;;6.07;4.90;;;27.00;99.90;;;;;;5070327;28;20462;-66
2022/05/16 09:31:31;;;;;;;7.30;5.53;;;27.50;98.70;;;;;;5070178;28;20435;-68
2022/05/16 09:33:59;;;;;;;8.83;5.97;;;27.70;97.80;;;;;;5070913;28;20443;-68
2022/05/16 09:36:31;;;;;;;6.20;5.37;;;28.10;98.00;;;;;;5070406;28;20962;-67
2022/05/16 09:38:58;;;;;;;5.87;5.27;;;28.50;96.50;;;;;;5070384;28;21019;-67
2022/05/16 09:41:40;;;;;;;8.67;5.97;;;29.10;96.20;;;;;;5068986;28;20431;-67
2022/05/16 09:44:15;;;;;;;8.13;5.77;;;28.80;95.50;;;;;;5070339;28;20489;-68
2022/05/16 09:46:44;;;;;;;6.57;5.87;;;29.10;94.70;;;;;;5070205;28;20538;-67
2022/05/16 09:49:19;;;;;;;5.63;4.87;;;28.90;94.40;;;;;;5069941;28;20495;-67
2022/05/16 09:51:49;;;;;;;8.57;5.40;;;28.70;93.20;;;;;;5069684;28;20965;-68
2022/05/16 09:54:23;;;;;;;6.90;5.70;;;27.80;94.10;;;;;;5069889;28;20551;-67
2022/05/16 09:57:04;;;;;;;7.30;5.40;;;26.90;95.30;;;;;;5070145;28;20455;-67
2022/05/16 09:59:36;;;;;;;10.20;6.60;;;26.50;96.00;;;;;;5070007;28;20467;-66
2022/05/16 10:02:27;;;;;;;6.13;5.53;;;26.30;96.40;;;;;;5069886;28;20463;-65
2022/05/16 10:04:57;;;;;;;8.67;5.70;;;26.20;97.60;;;;;;5070313;28;20501;-67
2022/05/16 10:07:30;;;;;;;7.37;5.40;;;26.30;98.60;;;;;;5070564;28;20820;-67
2022/05/16 10:09:58;;;;;;;8.20;4.77;;;26.20;99.30;;;;;;5069751;28;20888;-67
2022/05/16 10:12:29;;;;;;;8.20;5.80;;;26.00;99.30;;;;;;5070039;28;20451;-67
2022/05/16 10:14:56;;;;;;;6.73;5.73;;;25.70;99.60;;;;;;5070077;28;20457;-67
2022/05/16 10:17:31;;;;;;;8.50;5.87;;;25.70;99.90;;;;;;5070055;28;20457;-66
2022/05/16 10:20:02;;;;;;;11.80;5.83;;;25.90;99.90;;;;;;5070042;28;20472;-69
2022/05/16 10:22:31;;;;;;;7.20;5.80;;;26.20;99.90;;;;;;5069899;28;20501;-67
2022/05/16 10:25:00;;;;;;;6.83;5.80;;;26.40;99.10;;;;;;5069517;28;20502;-67
2022/05/16 10:27:32;;;;;;;6.80;5.80;;;26.70;98.70;;;;;;5069886;28;20451;-67
2022/05/16 10:30:04;;;;;;;12.13;6.60;;;27.10;98.80;;;;;;5069355;28;20980;-67
2022/05/16 10:35:28;;;;;;;5.87;5.00;;;26.60;96.00;;;;;;5070088;28;20804;-68
2022/05/16 10:37:58;;;;;;;11.60;5.37;;;26.20;98.10;;;;;;5070222;28;20463;-66
2022/05/16 10:40:30;;;;;;;13.97;5.73;;;25.80;96.60;;;;;;5070902;28;20443;-66
2022/05/16 10:43:19;;;;;;;7.80;5.37;;;25.40;97.30;;;;;;5069988;28;20944;-66
2022/05/16 10:45:52;;;;;;;8.10;5.10;;;25.10;98.00;;;;;;5069687;28;20459;-68
2022/05/16 10:48:26;;;;;;;6.37;4.97;;;24.90;98.80;;;;;;5070027;28;20462;-68
2022/05/16 10:51:00;;;;;;;7.70;4.10;;;24.70;98.60;;;;;;5069494;28;20490;-67
2022/05/16 10:53:31;;;;;;;7.03;4.97;;;24.40;98.10;;;;;;5072917;28;20447;-65
2022/05/16 10:56:13;;;;;;;7.73;4.23;;;24.20;98.50;;;;;;5073617;28;20869;-65
2022/05/16 10:58:51;;;;;;;8.60;4.40;;;24.20;98.50;;;;;;5073607;28;20475;-68
2022/05/16 11:01:23;;;;;;;6.70;4.27;;;24.10;98.80;;;;;;5073295;28;20465;-65
2022/05/16 11:04:19;;;;;;;11.50;4.10;;;24.10;99.10;;;;;;5073450;28;20971;-66
2022/05/16 11:06:59;;;;;;;6.03;4.00;;;24.20;99.20;;;;;;5073244;28;20975;-66
2022/05/16 11:09:35;;;;;;;6.83;3.20;;;24.40;99.40;;;;;;5073347;28;20470;-66
2022/05/16 11:12:08;;;;;;;8.57;4.83;;;24.60;99.40;;;;;;5072952;28;20958;-67
2022/05/16 11:14:46;;;;;;;5.83;4.00;;;24.80;98.80;;;;;;5073190;28;20466;-67
2022/05/16 11:17:25;;;;;;;7.33;3.80;;;24.60;98.80;;;;;;5072914;28;20497;-67
2022/05/16 11:20:00;;;;;;;6.33;4.30;;;24.30;99.00;;;;;;5072816;28;20480;-66
2022/05/16 11:22:31;;;;;;;5.33;3.63;;;24.40;99.90;;;;;;5073120;28;20801;-67
2022/05/16 11:25:06;;;;;;;8.10;3.73;;;24.30;99.60;;;;;;5072939;28;20443;-67
2022/05/16 11:27:38;;;;;;;8.33;4.37;;;23.90;99.90;;;;;;5070911;28;20448;-67
2022/05/16 11:30:14;;;;;;;6.57;4.17;;;23.70;99.90;;;;;;5069796;28;21024;-66
2022/05/16 11:32:56;;;;;;;6.20;4.00;;;23.50;99.90;;;;;;5070945;28;20451;-67
2022/05/16 11:35:28;;;;;;;10.73;4.50;;;23.30;99.90;;;;;;5069404;28;20447;-67
2022/05/16 11:38:09;;;;;;;6.07;3.30;;;23.00;99.90;;;;;;5072310;28;20455;-67
2022/05/16 11:40:44;;;;;;;12.33;3.40;;;22.90;99.90;;;;;;5066597;28;20813;-67
2022/05/16 11:43:19;;;;;;;5.40;3.07;;;22.80;99.90;;;;;;5071296;28;20450;-67
2022/05/16 11:46:20;;;;;;;7.23;3.13;;;22.70;99.90;;;;;;5071159;28;21007;-66
2022/05/16 11:48:56;;;;;;;6.33;3.33;;;22.60;99.90;;;;;;5067047;28;20492;-66
2022/05/16 11:51:31;;;;;;;4.80;3.50;;;22.60;99.90;;;;;;5069275;28;20936;-67
2022/05/16 11:54:00;;;;;;;10.93;3.27;;;22.60;99.90;;;;;;5072219;28;20458;-67
2022/05/16 12:02:21;;;;;;;7.63;2.70;;;22.40;99.90;;;;;;5071255;28;20478;-67
2022/05/16 12:04:51;;;;;;;6.40;2.80;;;22.30;99.90;;;;;;5068535;28;20972;-67
2022/05/16 12:07:27;;;;;;;4.87;2.67;;;22.20;99.90;;;;;;5071022;28;20535;-67
2022/05/16 12:09:58;;;;;;;5.10;2.50;;;22.10;99.90;;;;;;5071115;28;20477;-67
2022/05/16 12:12:35;;;;;;;4.17;2.50;;;22.00;99.90;;;;;;5072087;28;20830;-67
2022/05/16 12:15:18;;;;;;;6.57;2.60;;;22.00;99.90;;;;;;5071958;28;20462;-67
2022/05/16 12:17:52;;;;;;;4.10;2.20;;;22.00;99.90;;;;;;5065063;28;20447;-67
2022/05/16 12:20:39;;;;;;;4.50;2.53;;;22.00;99.90;;;;;;5069996;28;20446;-67
2022/05/16 12:23:08;;;;;;;4.50;2.20;;;21.80;99.90;;;;;;5070345;28;20454;-67
2022/05/16 12:25:37;;;;;;;5.00;2.90;;;21.80;99.90;;;;;;5070182;28;20443;-67
2022/05/16 12:28:29;;;;;;;4.83;2.80;;;21.60;99.90;;;;;;5066107;28;20510;-66
2022/05/16 12:30:58;;;;;;;5.63;1.83;;;21.10;99.90;;;;;;5067216;28;20528;-67
2022/05/16 12:33:52;;;;;;;5.57;2.17;;;20.50;99.90;;;;;;5069834;28;20454;-67
2022/05/16 12:36:21;;;;;;;6.20;2.50;;;19.90;99.90;;;;;;5068920;28;20465;-67
2022/05/16 12:38:54;;;;;;;6.60;3.30;;;19.30;99.90;;;;;;5069345;28;20467;-67
2022/05/16 12:41:51;;;;;;;14.80;4.40;;;18.80;99.90;;;;;;5069435;28;20438;-67
2022/05/16 12:44:42;;;;;;;8.40;3.20;;;18.40;99.90;;;;;;5069637;28;20555;-67
2022/05/16 12:47:41;;;;;;;4.50;2.70;;;18.00;99.90;;;;;;5070971;28;20447;-67
2022/05/16 12:50:25;;;;;;;9.60;3.20;;;17.70;99.90;;;;;;5070801;28;20470;-67
2022/05/16 12:53:24;;;;;;;6.03;2.57;;;17.60;99.90;;;;;;5071224;28;20478;-67
2022/05/16 12:56:07;;;;;;;5.90;2.90;;;17.40;99.90;;;;;;5054325;28;20522;-67
2022/05/16 12:58:44;;;;;;;4.70;2.83;;;17.30;99.90;;;;;;5070842;28;20574;-67
2022/05/16 13:01:25;;;;;;;5.33;3.40;;;17.30;99.90;;;;;;5070406;28;20819;-67
2022/05/16 13:04:00;;;;;;;6.57;2.70;;;17.20;99.90;;;;;;5070982;28;20469;-67
2022/05/16 13:06:51;;;;;;;6.43;3.60;;;17.30;99.90;;;;;;5070984;28;20443;-67
2022/05/16 13:09:31;;;;;;;5.93;3.60;;;17.40;99.90;;;;;;5070856;28;20461;-67
2022/05/16 13:12:07;;;;;;;6.33;3.43;;;17.50;99.90;;;;;;5070604;28;20900;-67
2022/05/16 13:14:40;;;;;;;7.37;2.90;;;17.70;99.90;;;;;;5070792;28;20534;-67
2022/05/16 13:17:09;;;;;;;6.60;3.40;;;17.80;99.90;;;;;;5071101;28;20451;-68
2022/05/16 13:19:43;;;;;;;4.90;3.20;;;18.00;99.90;;;;;;5071062;28;20475;-67
2022/05/16 13:22:16;;;;;;;6.60;3.40;;;18.20;99.90;;;;;;5070774;28;20803;-67
2022/05/16 13:24:43;;;;;;;3.60;2.93;;;18.80;99.90;;;;;;5071061;28;20442;-68
2022/05/16 13:30:01;;;;;;;5.77;3.43;;;19.80;99.90;;;;;;5058929;28;20447;-68
2022/05/16 13:32:30;;;;;;;5.17;3.03;;;20.40;99.90;;;;;;5070305;28;20944;-67
2022/05/16 13:34:58;;;;;;;6.20;3.90;;;20.90;99.90;;;;;;5070743;28;20447;-68
2022/05/16 13:37:29;;;;;;;4.83;2.93;;;21.40;99.90;;;;;;5070442;28;20982;-68
2022/05/16 13:40:01;;;;;;;5.60;2.80;;;21.80;99.90;;;;;;5070369;28;20475;-68